sensor_id;sensor_type;location;lat;lon;timestamp;P1;durP1;ratioP1;P2;durP2;ratioP2
61009;SDS011;46897;55.340;86.082;2022-09-09T00:01:25;18.27;;;8.18;;
61009;SDS011;46897;55.340;86.082;2022-09-09T00:04:09;16.85;;;7.80;;
61009;SDS011;46897;55.340;86.082;2022-09-09T00:06:45;25.60;;;9.02;;
61009;SDS011;46897;55.340;86.082;2022-09-09T00:09:24;20.23;;;9.35;;
61009;SDS011;46897;55.340;86.082;2022-09-09T00:12:01;15.50;;;7.93;;
61009;SDS011;46897;55.340;86.082;2022-09-09T00:14:39;16.95;;;7.68;;
61009;SDS011;46897;55.340;86.082;2022-09-09T00:17:18;22.40;;;12.18;;
61009;SDS011;46897;55.340;86.082;2022-09-09T00:20:09;20.63;;;9.52;;
61009;SDS011;46897;55.340;86.082;2022-09-09T00:22:59;17.67;;;8.60;;
61009;SDS011;46897;55.340;86.082;2022-09-09T00:28:59;21.63;;;9.02;;
61009;SDS011;46897;55.340;86.082;2022-09-09T00:31:51;22.98;;;10.18;;
61009;SDS011;46897;55.340;86.082;2022-09-09T00:34:42;26.15;;;10.10;;
61009;SDS011;46897;55.340;86.082;2022-09-09T00:37:19;25.73;;;11.23;;
61009;SDS011;46897;55.340;86.082;2022-09-09T00:39:59;23.88;;;10.35;;
61009;SDS011;46897;55.340;86.082;2022-09-09T00:42:36;25.23;;;10.70;;
61009;SDS011;46897;55.340;86.082;2022-09-09T00:45:17;21.80;;;10.70;;
61009;SDS011;46897;55.340;86.082;2022-09-09T00:50:52;28.90;;;13.13;;
61009;SDS011;46897;55.340;86.082;2022-09-09T00:53:31;26.35;;;13.13;;
61009;SDS011;46897;55.340;86.082;2022-09-09T00:56:23;23.83;;;11.77;;
61009;SDS011;46897;55.340;86.082;2022-09-09T01:03:25;25.50;;;11.02;;
61009;SDS011;46897;55.340;86.082;2022-09-09T01:07:17;31.67;;;11.70;;
61009;SDS011;46897;55.340;86.082;2022-09-09T01:10:26;24.13;;;10.10;;
61009;SDS011;46897;55.340;86.082;2022-09-09T01:13:38;22.80;;;10.43;;
61009;SDS011;46897;55.340;86.082;2022-09-09T01:16:11;26.05;;;10.48;;
61009;SDS011;46897;55.340;86.082;2022-09-09T01:18:53;22.50;;;9.90;;
61009;SDS011;46897;55.340;86.082;2022-09-09T01:21:47;27.67;;;8.88;;
61009;SDS011;46897;55.340;86.082;2022-09-09T01:25:01;22.67;;;8.73;;
61009;SDS011;46897;55.340;86.082;2022-09-09T01:27:49;22.52;;;8.63;;
61009;SDS011;46897;55.340;86.082;2022-09-09T01:30:22;21.73;;;7.90;;
61009;SDS011;46897;55.340;86.082;2022-09-09T01:32:53;17.50;;;7.03;;
61009;SDS011;46897;55.340;86.082;2022-09-09T01:35:37;16.98;;;7.78;;
61009;SDS011;46897;55.340;86.082;2022-09-09T01:38:11;19.45;;;7.93;;
61009;SDS011;46897;55.340;86.082;2022-09-09T01:40:41;16.58;;;7.45;;
61009;SDS011;46897;55.340;86.082;2022-09-09T01:43:12;18.45;;;8.73;;
61009;SDS011;46897;55.340;86.082;2022-09-09T01:45:42;26.80;;;11.68;;
61009;SDS011;46897;55.340;86.082;2022-09-09T01:48:13;18.75;;;10.30;;
61009;SDS011;46897;55.340;86.082;2022-09-09T01:50:43;25.80;;;12.30;;
61009;SDS011;46897;55.340;86.082;2022-09-09T01:53:13;22.60;;;9.95;;
61009;SDS011;46897;55.340;86.082;2022-09-09T01:55:44;28.88;;;13.68;;
61009;SDS011;46897;55.340;86.082;2022-09-09T02:01:52;28.92;;;9.88;;
61009;SDS011;46897;55.340;86.082;2022-09-09T02:04:39;25.33;;;10.68;;
61009;SDS011;46897;55.340;86.082;2022-09-09T02:07:35;18.67;;;8.88;;
61009;SDS011;46897;55.340;86.082;2022-09-09T02:10:11;20.13;;;8.63;;
61009;SDS011;46897;55.340;86.082;2022-09-09T02:12:50;22.83;;;9.35;;
61009;SDS011;46897;55.340;86.082;2022-09-09T02:15:52;19.65;;;7.90;;
61009;SDS011;46897;55.340;86.082;2022-09-09T02:21:27;16.05;;;6.55;;
61009;SDS011;46897;55.340;86.082;2022-09-09T02:23:59;15.98;;;6.72;;
61009;SDS011;46897;55.340;86.082;2022-09-09T02:26:33;14.40;;;7.13;;
61009;SDS011;46897;55.340;86.082;2022-09-09T02:29:07;23.08;;;8.15;;
61009;SDS011;46897;55.340;86.082;2022-09-09T02:31:43;20.15;;;8.57;;
61009;SDS011;46897;55.340;86.082;2022-09-09T02:34:15;20.30;;;10.15;;
61009;SDS011;46897;55.340;86.082;2022-09-09T02:36:48;31.20;;;10.85;;
61009;SDS011;46897;55.340;86.082;2022-09-09T02:39:19;27.27;;;11.48;;
61009;SDS011;46897;55.340;86.082;2022-09-09T02:41:48;27.70;;;13.23;;
61009;SDS011;46897;55.340;86.082;2022-09-09T02:44:18;32.03;;;15.25;;
61009;SDS011;46897;55.340;86.082;2022-09-09T02:46:55;33.72;;;12.80;;
61009;SDS011;46897;55.340;86.082;2022-09-09T02:49:43;30.83;;;12.32;;
61009;SDS011;46897;55.340;86.082;2022-09-09T02:52:18;32.55;;;13.70;;
61009;SDS011;46897;55.340;86.082;2022-09-09T02:54:55;24.20;;;11.05;;
61009;SDS011;46897;55.340;86.082;2022-09-09T02:57:31;29.13;;;12.65;;
61009;SDS011;46897;55.340;86.082;2022-09-09T03:00:04;25.90;;;9.77;;
61009;SDS011;46897;55.340;86.082;2022-09-09T03:02:35;21.75;;;8.63;;
61009;SDS011;46897;55.340;86.082;2022-09-09T03:05:06;23.85;;;9.20;;
61009;SDS011;46897;55.340;86.082;2022-09-09T03:07:35;23.30;;;9.07;;
61009;SDS011;46897;55.340;86.082;2022-09-09T03:10:08;21.42;;;8.50;;
61009;SDS011;46897;55.340;86.082;2022-09-09T03:12:37;27.42;;;10.68;;
61009;SDS011;46897;55.340;86.082;2022-09-09T03:15:07;24.95;;;10.75;;
61009;SDS011;46897;55.340;86.082;2022-09-09T03:17:40;26.50;;;10.18;;
61009;SDS011;46897;55.340;86.082;2022-09-09T03:20:09;27.73;;;11.68;;
61009;SDS011;46897;55.340;86.082;2022-09-09T03:22:39;32.30;;;14.00;;
61009;SDS011;46897;55.340;86.082;2022-09-09T03:25:08;34.28;;;13.90;;
61009;SDS011;46897;55.340;86.082;2022-09-09T03:27:37;45.60;;;14.85;;
61009;SDS011;46897;55.340;86.082;2022-09-09T03:30:07;34.45;;;14.93;;
61009;SDS011;46897;55.340;86.082;2022-09-09T03:32:37;40.88;;;18.92;;
61009;SDS011;46897;55.340;86.082;2022-09-09T03:35:14;40.33;;;15.60;;
61009;SDS011;46897;55.340;86.082;2022-09-09T03:37:44;40.00;;;15.98;;
61009;SDS011;46897;55.340;86.082;2022-09-09T03:40:15;36.03;;;14.40;;
61009;SDS011;46897;55.340;86.082;2022-09-09T03:42:47;35.55;;;14.63;;
61009;SDS011;46897;55.340;86.082;2022-09-09T03:45:16;41.80;;;14.80;;
61009;SDS011;46897;55.340;86.082;2022-09-09T03:47:47;33.05;;;12.70;;
61009;SDS011;46897;55.340;86.082;2022-09-09T03:50:17;27.65;;;12.13;;
61009;SDS011;46897;55.340;86.082;2022-09-09T03:52:48;22.80;;;10.73;;
61009;SDS011;46897;55.340;86.082;2022-09-09T03:55:21;26.30;;;11.20;;
61009;SDS011;46897;55.340;86.082;2022-09-09T03:57:52;22.98;;;9.50;;
61009;SDS011;46897;55.340;86.082;2022-09-09T04:00:24;27.65;;;10.15;;
61009;SDS011;46897;55.340;86.082;2022-09-09T04:02:55;30.63;;;11.80;;
61009;SDS011;46897;55.340;86.082;2022-09-09T04:05:24;27.23;;;10.43;;
61009;SDS011;46897;55.340;86.082;2022-09-09T04:07:54;24.52;;;9.65;;
61009;SDS011;46897;55.340;86.082;2022-09-09T04:10:23;23.75;;;8.45;;
61009;SDS011;46897;55.340;86.082;2022-09-09T04:12:53;24.45;;;8.75;;
61009;SDS011;46897;55.340;86.082;2022-09-09T04:15:22;25.63;;;8.88;;
61009;SDS011;46897;55.340;86.082;2022-09-09T04:17:52;29.33;;;9.18;;
61009;SDS011;46897;55.340;86.082;2022-09-09T04:20:23;28.80;;;8.73;;
61009;SDS011;46897;55.340;86.082;2022-09-09T04:22:52;21.95;;;8.38;;
61009;SDS011;46897;55.340;86.082;2022-09-09T04:25:22;26.50;;;11.25;;
61009;SDS011;46897;55.340;86.082;2022-09-09T04:27:53;23.90;;;8.02;;
61009;SDS011;46897;55.340;86.082;2022-09-09T04:30:23;15.75;;;6.72;;
61009;SDS011;46897;55.340;86.082;2022-09-09T04:32:54;14.05;;;6.30;;
61009;SDS011;46897;55.340;86.082;2022-09-09T04:35:26;15.60;;;7.45;;
61009;SDS011;46897;55.340;86.082;2022-09-09T04:37:56;17.55;;;7.25;;
61009;SDS011;46897;55.340;86.082;2022-09-09T04:40:25;16.73;;;6.70;;
61009;SDS011;46897;55.340;86.082;2022-09-09T04:42:55;27.67;;;12.27;;
61009;SDS011;46897;55.340;86.082;2022-09-09T04:45:26;19.65;;;8.32;;
61009;SDS011;46897;55.340;86.082;2022-09-09T04:47:55;19.33;;;9.40;;
61009;SDS011;46897;55.340;86.082;2022-09-09T04:50:27;29.98;;;12.00;;
61009;SDS011;46897;55.340;86.082;2022-09-09T04:52:56;29.05;;;8.45;;
61009;SDS011;46897;55.340;86.082;2022-09-09T04:55:29;22.48;;;7.90;;
61009;SDS011;46897;55.340;86.082;2022-09-09T04:58:02;18.77;;;6.95;;
61009;SDS011;46897;55.340;86.082;2022-09-09T05:00:33;19.23;;;8.23;;
61009;SDS011;46897;55.340;86.082;2022-09-09T05:03:03;15.43;;;6.78;;
61009;SDS011;46897;55.340;86.082;2022-09-09T05:05:36;15.05;;;7.25;;
61009;SDS011;46897;55.340;86.082;2022-09-09T05:08:06;11.75;;;4.65;;
61009;SDS011;46897;55.340;86.082;2022-09-09T05:10:37;12.80;;;5.78;;
61009;SDS011;46897;55.340;86.082;2022-09-09T05:13:08;18.33;;;6.40;;
61009;SDS011;46897;55.340;86.082;2022-09-09T05:15:38;12.32;;;5.75;;
61009;SDS011;46897;55.340;86.082;2022-09-09T05:18:09;16.23;;;7.10;;
61009;SDS011;46897;55.340;86.082;2022-09-09T05:20:41;22.20;;;7.40;;
61009;SDS011;46897;55.340;86.082;2022-09-09T05:23:10;25.50;;;8.77;;
61009;SDS011;46897;55.340;86.082;2022-09-09T05:25:40;19.25;;;9.02;;
61009;SDS011;46897;55.340;86.082;2022-09-09T05:28:10;19.15;;;8.07;;
61009;SDS011;46897;55.340;86.082;2022-09-09T05:30:40;27.25;;;8.70;;
61009;SDS011;46897;55.340;86.082;2022-09-09T05:33:11;16.23;;;6.32;;
61009;SDS011;46897;55.340;86.082;2022-09-09T05:35:42;13.57;;;4.80;;
61009;SDS011;46897;55.340;86.082;2022-09-09T05:38:11;11.82;;;4.97;;
61009;SDS011;46897;55.340;86.082;2022-09-09T05:40:46;11.13;;;4.97;;
61009;SDS011;46897;55.340;86.082;2022-09-09T05:43:17;10.38;;;3.85;;
61009;SDS011;46897;55.340;86.082;2022-09-09T05:45:58;10.52;;;3.47;;
61009;SDS011;46897;55.340;86.082;2022-09-09T05:48:30;8.82;;;3.05;;
61009;SDS011;46897;55.340;86.082;2022-09-09T05:51:09;6.88;;;3.38;;
61009;SDS011;46897;55.340;86.082;2022-09-09T05:53:49;6.82;;;2.75;;
61009;SDS011;46897;55.340;86.082;2022-09-09T05:56:21;4.97;;;2.75;;
61009;SDS011;46897;55.340;86.082;2022-09-09T05:58:53;5.60;;;2.45;;
61009;SDS011;46897;55.340;86.082;2022-09-09T06:01:23;4.70;;;2.42;;
61009;SDS011;46897;55.340;86.082;2022-09-09T06:03:54;5.10;;;2.50;;
61009;SDS011;46897;55.340;86.082;2022-09-09T06:06:29;5.65;;;2.95;;
61009;SDS011;46897;55.340;86.082;2022-09-09T06:09:04;4.57;;;2.42;;
61009;SDS011;46897;55.340;86.082;2022-09-09T06:11:37;6.43;;;2.85;;
61009;SDS011;46897;55.340;86.082;2022-09-09T06:14:07;4.35;;;2.38;;
61009;SDS011;46897;55.340;86.082;2022-09-09T06:16:37;7.50;;;3.15;;
61009;SDS011;46897;55.340;86.082;2022-09-09T06:19:06;7.95;;;3.10;;
61009;SDS011;46897;55.340;86.082;2022-09-09T06:21:40;7.95;;;2.58;;
61009;SDS011;46897;55.340;86.082;2022-09-09T06:24:14;5.13;;;3.00;;
61009;SDS011;46897;55.340;86.082;2022-09-09T06:26:46;4.97;;;2.58;;
61009;SDS011;46897;55.340;86.082;2022-09-09T06:29:15;5.43;;;2.85;;
61009;SDS011;46897;55.340;86.082;2022-09-09T06:31:45;5.38;;;2.53;;
61009;SDS011;46897;55.340;86.082;2022-09-09T06:34:16;2.90;;;2.10;;
61009;SDS011;46897;55.340;86.082;2022-09-09T06:36:50;4.47;;;2.92;;
61009;SDS011;46897;55.340;86.082;2022-09-09T06:39:20;7.63;;;3.10;;
61009;SDS011;46897;55.340;86.082;2022-09-09T06:41:49;5.15;;;3.10;;
61009;SDS011;46897;55.340;86.082;2022-09-09T06:44:20;4.90;;;2.70;;
61009;SDS011;46897;55.340;86.082;2022-09-09T06:46:49;7.35;;;3.25;;
61009;SDS011;46897;55.340;86.082;2022-09-09T06:49:20;4.35;;;2.38;;
61009;SDS011;46897;55.340;86.082;2022-09-09T06:51:55;7.68;;;2.28;;
61009;SDS011;46897;55.340;86.082;2022-09-09T06:54:24;5.80;;;2.33;;
61009;SDS011;46897;55.340;86.082;2022-09-09T06:57:08;4.90;;;2.45;;
61009;SDS011;46897;55.340;86.082;2022-09-09T06:59:58;5.57;;;2.20;;
61009;SDS011;46897;55.340;86.082;2022-09-09T07:02:27;5.40;;;2.65;;
61009;SDS011;46897;55.340;86.082;2022-09-09T07:04:56;4.63;;;2.20;;
61009;SDS011;46897;55.340;86.082;2022-09-09T07:07:29;4.50;;;2.20;;
61009;SDS011;46897;55.340;86.082;2022-09-09T07:09:58;5.00;;;2.20;;
61009;SDS011;46897;55.340;86.082;2022-09-09T07:12:28;6.18;;;2.45;;
61009;SDS011;46897;55.340;86.082;2022-09-09T07:15:05;3.88;;;1.95;;
61009;SDS011;46897;55.340;86.082;2022-09-09T07:17:38;6.22;;;2.20;;
61009;SDS011;46897;55.340;86.082;2022-09-09T07:20:10;5.07;;;2.10;;
61009;SDS011;46897;55.340;86.082;2022-09-09T07:22:41;4.75;;;1.67;;
61009;SDS011;46897;55.340;86.082;2022-09-09T07:25:11;4.53;;;2.20;;
61009;SDS011;46897;55.340;86.082;2022-09-09T07:27:45;5.95;;;2.65;;
61009;SDS011;46897;55.340;86.082;2022-09-09T07:30:14;2.70;;;1.80;;
61009;SDS011;46897;55.340;86.082;2022-09-09T07:32:51;6.95;;;2.35;;
61009;SDS011;46897;55.340;86.082;2022-09-09T07:35:20;5.95;;;2.15;;
61009;SDS011;46897;55.340;86.082;2022-09-09T07:37:53;4.63;;;2.08;;
61009;SDS011;46897;55.340;86.082;2022-09-09T07:43:35;3.97;;;1.67;;
61009;SDS011;46897;55.340;86.082;2022-09-09T07:46:04;5.95;;;2.10;;
61009;SDS011;46897;55.340;86.082;2022-09-09T07:48:36;7.85;;;4.07;;
61009;SDS011;46897;55.340;86.082;2022-09-09T07:51:06;5.18;;;2.90;;
61009;SDS011;46897;55.340;86.082;2022-09-09T07:53:44;7.45;;;3.38;;
61009;SDS011;46897;55.340;86.082;2022-09-09T07:59:07;5.03;;;2.67;;
61009;SDS011;46897;55.340;86.082;2022-09-09T08:02:04;8.95;;;3.00;;
61009;SDS011;46897;55.340;86.082;2022-09-09T08:04:34;4.45;;;1.85;;
61009;SDS011;46897;55.340;86.082;2022-09-09T08:07:12;7.07;;;2.42;;
61009;SDS011;46897;55.340;86.082;2022-09-09T08:09:45;5.53;;;2.55;;
61009;SDS011;46897;55.340;86.082;2022-09-09T08:12:15;2.40;;;1.75;;
61009;SDS011;46897;55.340;86.082;2022-09-09T08:14:45;3.53;;;1.73;;
61009;SDS011;46897;55.340;86.082;2022-09-09T08:17:15;3.75;;;2.25;;
61009;SDS011;46897;55.340;86.082;2022-09-09T08:19:56;2.70;;;1.83;;
61009;SDS011;46897;55.340;86.082;2022-09-09T08:22:31;3.50;;;2.20;;
61009;SDS011;46897;55.340;86.082;2022-09-09T08:25:03;6.90;;;2.20;;
61009;SDS011;46897;55.340;86.082;2022-09-09T08:27:34;3.30;;;2.25;;
61009;SDS011;46897;55.340;86.082;2022-09-09T08:30:04;10.27;;;2.85;;
61009;SDS011;46897;55.340;86.082;2022-09-09T08:32:34;3.38;;;2.30;;
61009;SDS011;46897;55.340;86.082;2022-09-09T08:35:06;5.43;;;2.50;;
61009;SDS011;46897;55.340;86.082;2022-09-09T08:37:36;6.53;;;2.85;;
61009;SDS011;46897;55.340;86.082;2022-09-09T08:40:12;4.95;;;2.50;;
61009;SDS011;46897;55.340;86.082;2022-09-09T08:42:51;5.13;;;3.10;;
61009;SDS011;46897;55.340;86.082;2022-09-09T08:45:25;4.30;;;2.33;;
61009;SDS011;46897;55.340;86.082;2022-09-09T08:48:06;4.47;;;2.53;;
61009;SDS011;46897;55.340;86.082;2022-09-09T08:50:48;6.60;;;2.80;;
61009;SDS011;46897;55.340;86.082;2022-09-09T08:53:33;6.63;;;2.40;;
61009;SDS011;46897;55.340;86.082;2022-09-09T08:56:34;8.00;;;4.68;;
61009;SDS011;46897;55.340;86.082;2022-09-09T08:59:29;11.23;;;5.25;;
61009;SDS011;46897;55.340;86.082;2022-09-09T09:02:20;6.30;;;2.67;;
61009;SDS011;46897;55.340;86.082;2022-09-09T09:05:14;6.28;;;3.25;;
61009;SDS011;46897;55.340;86.082;2022-09-09T09:07:55;9.95;;;3.85;;
61009;SDS011;46897;55.340;86.082;2022-09-09T09:10:36;8.00;;;3.78;;
61009;SDS011;46897;55.340;86.082;2022-09-09T09:16:17;5.72;;;3.40;;
61009;SDS011;46897;55.340;86.082;2022-09-09T09:21:31;8.73;;;3.83;;
61009;SDS011;46897;55.340;86.082;2022-09-09T09:24:11;12.55;;;4.55;;
61009;SDS011;46897;55.340;86.082;2022-09-09T09:26:47;5.28;;;2.50;;
61009;SDS011;46897;55.340;86.082;2022-09-09T09:29:20;5.63;;;1.95;;
61009;SDS011;46897;55.340;86.082;2022-09-09T09:32:20;3.13;;;1.60;;
61009;SDS011;46897;55.340;86.082;2022-09-09T09:34:51;3.55;;;1.70;;
61009;SDS011;46897;55.340;86.082;2022-09-09T09:37:29;3.10;;;1.88;;
61009;SDS011;46897;55.340;86.082;2022-09-09T09:40:09;2.30;;;1.48;;
61009;SDS011;46897;55.340;86.082;2022-09-09T09:42:47;4.57;;;2.20;;
61009;SDS011;46897;55.340;86.082;2022-09-09T09:48:40;8.75;;;2.65;;
61009;SDS011;46897;55.340;86.082;2022-09-09T09:51:09;8.57;;;4.45;;
61009;SDS011;46897;55.340;86.082;2022-09-09T09:53:42;5.78;;;2.35;;
61009;SDS011;46897;55.340;86.082;2022-09-09T09:56:16;8.00;;;3.25;;
61009;SDS011;46897;55.340;86.082;2022-09-09T09:58:55;8.40;;;3.50;;
61009;SDS011;46897;55.340;86.082;2022-09-09T10:01:31;17.20;;;7.13;;
61009;SDS011;46897;55.340;86.082;2022-09-09T10:04:02;9.50;;;2.97;;
61009;SDS011;46897;55.340;86.082;2022-09-09T10:06:45;13.23;;;3.50;;
61009;SDS011;46897;55.340;86.082;2022-09-09T10:09:20;8.05;;;2.92;;
61009;SDS011;46897;55.340;86.082;2022-09-09T10:11:54;16.33;;;3.92;;
61009;SDS011;46897;55.340;86.082;2022-09-09T10:14:32;5.68;;;2.83;;
61009;SDS011;46897;55.340;86.082;2022-09-09T10:17:15;10.68;;;3.50;;
61009;SDS011;46897;55.340;86.082;2022-09-09T10:19:57;12.30;;;3.90;;
61009;SDS011;46897;55.340;86.082;2022-09-09T10:22:44;11.57;;;3.83;;
61009;SDS011;46897;55.340;86.082;2022-09-09T10:25:22;7.35;;;3.25;;
61009;SDS011;46897;55.340;86.082;2022-09-09T10:28:06;10.45;;;3.47;;
61009;SDS011;46897;55.340;86.082;2022-09-09T10:31:01;12.05;;;3.42;;
61009;SDS011;46897;55.340;86.082;2022-09-09T10:33:43;9.45;;;3.40;;
61009;SDS011;46897;55.340;86.082;2022-09-09T10:36:20;12.98;;;3.30;;
61009;SDS011;46897;55.340;86.082;2022-09-09T10:38:52;9.73;;;3.60;;
61009;SDS011;46897;55.340;86.082;2022-09-09T10:44:26;10.40;;;3.75;;
61009;SDS011;46897;55.340;86.082;2022-09-09T10:47:15;11.02;;;3.60;;
61009;SDS011;46897;55.340;86.082;2022-09-09T10:50:12;16.48;;;4.15;;
61009;SDS011;46897;55.340;86.082;2022-09-09T10:53:18;15.90;;;5.07;;
61009;SDS011;46897;55.340;86.082;2022-09-09T10:55:59;12.23;;;4.18;;
61009;SDS011;46897;55.340;86.082;2022-09-09T10:58:36;10.15;;;4.63;;
61009;SDS011;46897;55.340;86.082;2022-09-09T11:01:13;12.93;;;4.50;;
61009;SDS011;46897;55.340;86.082;2022-09-09T11:03:52;12.65;;;4.22;;
61009;SDS011;46897;55.340;86.082;2022-09-09T11:06:41;34.92;;;19.83;;
61009;SDS011;46897;55.340;86.082;2022-09-09T11:09:59;96.82;;;45.92;;
61009;SDS011;46897;55.340;86.082;2022-09-09T11:12:33;12.98;;;3.90;;
61009;SDS011;46897;55.340;86.082;2022-09-09T11:15:12;18.00;;;6.07;;
61009;SDS011;46897;55.340;86.082;2022-09-09T11:17:46;9.23;;;4.35;;
61009;SDS011;46897;55.340;86.082;2022-09-09T11:20:24;10.23;;;4.18;;
61009;SDS011;46897;55.340;86.082;2022-09-09T11:23:01;11.65;;;3.42;;
61009;SDS011;46897;55.340;86.082;2022-09-09T11:25:38;5.88;;;2.58;;
61009;SDS011;46897;55.340;86.082;2022-09-09T11:28:23;9.48;;;4.28;;
61009;SDS011;46897;55.340;86.082;2022-09-09T11:31:06;8.68;;;3.15;;
61009;SDS011;46897;55.340;86.082;2022-09-09T11:40:36;21.75;;;7.72;;
61009;SDS011;46897;55.340;86.082;2022-09-09T11:43:17;21.60;;;8.07;;
61009;SDS011;46897;55.340;86.082;2022-09-09T11:45:58;12.77;;;5.68;;
61009;SDS011;46897;55.340;86.082;2022-09-09T11:48:37;11.88;;;5.55;;
61009;SDS011;46897;55.340;86.082;2022-09-09T12:03:04;22.10;;;9.07;;
61009;SDS011;46897;55.340;86.082;2022-09-09T12:05:37;15.40;;;7.63;;
61009;SDS011;46897;55.340;86.082;2022-09-09T12:08:09;18.40;;;7.45;;
61009;SDS011;46897;55.340;86.082;2022-09-09T12:10:52;19.83;;;7.55;;
61009;SDS011;46897;55.340;86.082;2022-09-09T12:13:23;18.02;;;7.57;;
61009;SDS011;46897;55.340;86.082;2022-09-09T12:15:57;13.38;;;6.00;;
61009;SDS011;46897;55.340;86.082;2022-09-09T12:18:32;17.23;;;6.07;;
61009;SDS011;46897;55.340;86.082;2022-09-09T12:21:05;12.07;;;5.15;;
61009;SDS011;46897;55.340;86.082;2022-09-09T12:23:45;29.45;;;10.73;;
61009;SDS011;46897;55.340;86.082;2022-09-09T12:26:23;20.85;;;9.23;;
61009;SDS011;46897;55.340;86.082;2022-09-09T12:29:03;13.68;;;5.53;;
61009;SDS011;46897;55.340;86.082;2022-09-09T12:31:46;17.73;;;6.47;;
61009;SDS011;46897;55.340;86.082;2022-09-09T12:34:23;21.08;;;7.70;;
61009;SDS011;46897;55.340;86.082;2022-09-09T12:37:04;14.88;;;6.22;;
61009;SDS011;46897;55.340;86.082;2022-09-09T12:39:51;17.48;;;6.20;;
61009;SDS011;46897;55.340;86.082;2022-09-09T12:42:26;15.25;;;6.70;;
61009;SDS011;46897;55.340;86.082;2022-09-09T12:48:50;16.63;;;6.57;;
61009;SDS011;46897;55.340;86.082;2022-09-09T12:51:22;17.85;;;6.70;;
61009;SDS011;46897;55.340;86.082;2022-09-09T12:53:55;27.95;;;9.63;;
61009;SDS011;46897;55.340;86.082;2022-09-09T12:56:29;32.47;;;14.63;;
61009;SDS011;46897;55.340;86.082;2022-09-09T12:59:02;33.40;;;13.77;;
61009;SDS011;46897;55.340;86.082;2022-09-09T13:01:32;26.60;;;13.95;;
61009;SDS011;46897;55.340;86.082;2022-09-09T13:04:15;37.58;;;16.80;;
61009;SDS011;46897;55.340;86.082;2022-09-09T13:06:49;33.25;;;15.52;;
61009;SDS011;46897;55.340;86.082;2022-09-09T13:09:20;30.35;;;13.55;;
61009;SDS011;46897;55.340;86.082;2022-09-09T13:11:50;28.48;;;13.15;;
61009;SDS011;46897;55.340;86.082;2022-09-09T13:14:27;28.33;;;12.65;;
61009;SDS011;46897;55.340;86.082;2022-09-09T13:17:04;20.25;;;9.30;;
61009;SDS011;46897;55.340;86.082;2022-09-09T13:19:37;19.45;;;9.55;;
61009;SDS011;46897;55.340;86.082;2022-09-09T13:22:12;23.92;;;9.85;;
61009;SDS011;46897;55.340;86.082;2022-09-09T13:24:42;22.60;;;10.60;;
61009;SDS011;46897;55.340;86.082;2022-09-09T13:27:23;19.35;;;10.57;;
61009;SDS011;46897;55.340;86.082;2022-09-09T13:29:56;21.87;;;10.80;;
61009;SDS011;46897;55.340;86.082;2022-09-09T13:32:26;22.65;;;11.05;;
61009;SDS011;46897;55.340;86.082;2022-09-09T13:34:58;27.60;;;11.93;;
61009;SDS011;46897;55.340;86.082;2022-09-09T13:37:29;22.27;;;11.02;;
61009;SDS011;46897;55.340;86.082;2022-09-09T13:40:02;25.85;;;10.35;;
61009;SDS011;46897;55.340;86.082;2022-09-09T13:42:34;22.73;;;11.15;;
61009;SDS011;46897;55.340;86.082;2022-09-09T13:45:14;32.28;;;13.55;;
61009;SDS011;46897;55.340;86.082;2022-09-09T13:47:47;31.17;;;13.32;;
61009;SDS011;46897;55.340;86.082;2022-09-09T13:50:21;25.98;;;11.32;;
61009;SDS011;46897;55.340;86.082;2022-09-09T13:52:52;24.30;;;11.10;;
61009;SDS011;46897;55.340;86.082;2022-09-09T13:55:27;28.63;;;11.80;;
61009;SDS011;46897;55.340;86.082;2022-09-09T13:57:58;29.02;;;12.70;;
61009;SDS011;46897;55.340;86.082;2022-09-09T14:00:29;30.55;;;11.57;;
61009;SDS011;46897;55.340;86.082;2022-09-09T14:03:00;27.08;;;12.55;;
61009;SDS011;46897;55.340;86.082;2022-09-09T14:05:32;27.60;;;12.95;;
61009;SDS011;46897;55.340;86.082;2022-09-09T14:08:03;28.40;;;12.60;;
61009;SDS011;46897;55.340;86.082;2022-09-09T14:10:33;27.83;;;11.65;;
61009;SDS011;46897;55.340;86.082;2022-09-09T14:13:03;34.17;;;15.23;;
61009;SDS011;46897;55.340;86.082;2022-09-09T14:15:33;52.83;;;22.17;;
61009;SDS011;46897;55.340;86.082;2022-09-09T14:18:03;57.20;;;24.15;;
61009;SDS011;46897;55.340;86.082;2022-09-09T14:20:34;52.90;;;23.60;;
61009;SDS011;46897;55.340;86.082;2022-09-09T14:23:05;62.08;;;25.30;;
61009;SDS011;46897;55.340;86.082;2022-09-09T14:25:34;64.63;;;25.15;;
61009;SDS011;46897;55.340;86.082;2022-09-09T14:28:06;52.95;;;25.05;;
61009;SDS011;46897;55.340;86.082;2022-09-09T14:30:38;58.38;;;24.58;;
61009;SDS011;46897;55.340;86.082;2022-09-09T14:33:08;63.03;;;25.67;;
61009;SDS011;46897;55.340;86.082;2022-09-09T14:35:43;52.10;;;23.30;;
61009;SDS011;46897;55.340;86.082;2022-09-09T14:38:12;59.03;;;24.48;;
61009;SDS011;46897;55.340;86.082;2022-09-09T14:40:50;60.63;;;26.85;;
61009;SDS011;46897;55.340;86.082;2022-09-09T14:43:23;74.63;;;30.23;;
61009;SDS011;46897;55.340;86.082;2022-09-09T14:45:53;78.18;;;30.52;;
61009;SDS011;46897;55.340;86.082;2022-09-09T14:48:22;74.57;;;30.05;;
61009;SDS011;46897;55.340;86.082;2022-09-09T14:50:53;88.20;;;37.05;;
61009;SDS011;46897;55.340;86.082;2022-09-09T14:53:22;97.43;;;39.83;;
61009;SDS011;46897;55.340;86.082;2022-09-09T14:55:51;114.22;;;43.38;;
61009;SDS011;46897;55.340;86.082;2022-09-09T14:58:20;119.88;;;44.85;;
61009;SDS011;46897;55.340;86.082;2022-09-09T15:00:50;117.05;;;44.92;;
61009;SDS011;46897;55.340;86.082;2022-09-09T15:03:20;122.50;;;47.30;;
61009;SDS011;46897;55.340;86.082;2022-09-09T15:05:50;108.25;;;44.47;;
61009;SDS011;46897;55.340;86.082;2022-09-09T15:08:20;111.70;;;44.28;;
61009;SDS011;46897;55.340;86.082;2022-09-09T15:10:50;107.28;;;44.67;;
61009;SDS011;46897;55.340;86.082;2022-09-09T15:13:19;109.00;;;45.17;;
61009;SDS011;46897;55.340;86.082;2022-09-09T15:15:48;112.20;;;46.90;;
61009;SDS011;46897;55.340;86.082;2022-09-09T15:18:17;115.43;;;45.05;;
61009;SDS011;46897;55.340;86.082;2022-09-09T15:20:47;116.25;;;47.42;;
61009;SDS011;46897;55.340;86.082;2022-09-09T15:23:16;114.13;;;48.58;;
61009;SDS011;46897;55.340;86.082;2022-09-09T15:25:53;106.15;;;48.75;;
61009;SDS011;46897;55.340;86.082;2022-09-09T15:28:23;118.03;;;48.72;;
61009;SDS011;46897;55.340;86.082;2022-09-09T15:30:53;106.10;;;46.70;;
61009;SDS011;46897;55.340;86.082;2022-09-09T15:33:27;129.00;;;50.35;;
61009;SDS011;46897;55.340;86.082;2022-09-09T15:35:56;132.35;;;52.97;;
61009;SDS011;46897;55.340;86.082;2022-09-09T15:38:25;133.52;;;52.85;;
61009;SDS011;46897;55.340;86.082;2022-09-09T15:41:01;128.65;;;52.40;;
61009;SDS011;46897;55.340;86.082;2022-09-09T15:43:31;131.55;;;53.35;;
61009;SDS011;46897;55.340;86.082;2022-09-09T15:46:05;135.00;;;55.55;;
61009;SDS011;46897;55.340;86.082;2022-09-09T15:49:03;136.82;;;56.42;;
61009;SDS011;46897;55.340;86.082;2022-09-09T15:51:37;127.78;;;54.03;;
61009;SDS011;46897;55.340;86.082;2022-09-09T15:54:13;147.15;;;54.10;;
61009;SDS011;46897;55.340;86.082;2022-09-09T15:56:49;145.07;;;58.33;;
61009;SDS011;46897;55.340;86.082;2022-09-09T16:01:51;128.95;;;52.10;;
61009;SDS011;46897;55.340;86.082;2022-09-09T16:04:22;125.97;;;51.67;;
61009;SDS011;46897;55.340;86.082;2022-09-09T16:06:55;120.60;;;50.65;;